sensor_id;sensor_type;location;lat;lon;timestamp;P1;durP1;ratioP1;P2;durP2;ratioP2
36787;SDS011;22738;45.560;9.434;2022-10-16T00:00:26;78.43;;;37.88;;
36787;SDS011;22738;45.560;9.434;2022-10-16T00:07:07;80.53;;;39.83;;
36787;SDS011;22738;45.560;9.434;2022-10-16T00:13:49;97.75;;;41.60;;
36787;SDS011;22738;45.560;9.434;2022-10-16T00:33:58;92.78;;;41.38;;
36787;SDS011;22738;45.560;9.434;2022-10-16T00:40:39;96.13;;;44.13;;
36787;SDS011;22738;45.560;9.434;2022-10-16T00:47:42;99.25;;;41.97;;
36787;SDS011;22738;45.560;9.434;2022-10-16T00:54:27;110.63;;;47.00;;
36787;SDS011;22738;45.560;9.434;2022-10-16T01:01:10;101.50;;;44.35;;
36787;SDS011;22738;45.560;9.434;2022-10-16T01:14:58;77.65;;;36.08;;
36787;SDS011;22738;45.560;9.434;2022-10-16T01:21:47;94.07;;;39.95;;
36787;SDS011;22738;45.560;9.434;2022-10-16T01:28:34;91.13;;;41.05;;
36787;SDS011;22738;45.560;9.434;2022-10-16T01:42:14;92.55;;;38.97;;
36787;SDS011;22738;45.560;9.434;2022-10-16T01:49:02;85.70;;;39.60;;
36787;SDS011;22738;45.560;9.434;2022-10-16T01:55:45;91.43;;;38.75;;
36787;SDS011;22738;45.560;9.434;2022-10-16T02:02:29;97.57;;;41.35;;
36787;SDS011;22738;45.560;9.434;2022-10-16T02:09:11;69.85;;;34.60;;
36787;SDS011;22738;45.560;9.434;2022-10-16T02:15:52;81.20;;;35.15;;
36787;SDS011;22738;45.560;9.434;2022-10-16T02:22:38;93.97;;;41.07;;
36787;SDS011;22738;45.560;9.434;2022-10-16T02:29:22;76.68;;;35.53;;
36787;SDS011;22738;45.560;9.434;2022-10-16T02:36:06;84.40;;;36.42;;
36787;SDS011;22738;45.560;9.434;2022-10-16T02:42:49;77.60;;;36.33;;
36787;SDS011;22738;45.560;9.434;2022-10-16T02:49:32;64.60;;;31.75;;
36787;SDS011;22738;45.560;9.434;2022-10-16T02:56:13;64.32;;;31.73;;
36787;SDS011;22738;45.560;9.434;2022-10-16T03:02:54;70.63;;;35.15;;
36787;SDS011;22738;45.560;9.434;2022-10-16T03:09:35;61.47;;;29.95;;
36787;SDS011;22738;45.560;9.434;2022-10-16T03:16:16;54.85;;;28.52;;
36787;SDS011;22738;45.560;9.434;2022-10-16T03:22:57;64.07;;;31.90;;
36787;SDS011;22738;45.560;9.434;2022-10-16T03:29:38;68.88;;;33.42;;
36787;SDS011;22738;45.560;9.434;2022-10-16T03:36:20;69.35;;;33.08;;
36787;SDS011;22738;45.560;9.434;2022-10-16T03:43:01;78.15;;;37.33;;
36787;SDS011;22738;45.560;9.434;2022-10-16T03:49:42;69.07;;;33.35;;
36787;SDS011;22738;45.560;9.434;2022-10-16T03:56:23;77.72;;;37.97;;
36787;SDS011;22738;45.560;9.434;2022-10-16T04:03:04;70.72;;;35.15;;
36787;SDS011;22738;45.560;9.434;2022-10-16T04:09:45;64.53;;;29.30;;
36787;SDS011;22738;45.560;9.434;2022-10-16T04:16:26;67.05;;;32.08;;
36787;SDS011;22738;45.560;9.434;2022-10-16T04:23:07;67.25;;;31.63;;
36787;SDS011;22738;45.560;9.434;2022-10-16T04:29:48;66.75;;;30.48;;
36787;SDS011;22738;45.560;9.434;2022-10-16T04:36:32;63.83;;;30.90;;
36787;SDS011;22738;45.560;9.434;2022-10-16T04:43:13;55.10;;;27.70;;
36787;SDS011;22738;45.560;9.434;2022-10-16T04:49:55;61.13;;;30.45;;
36787;SDS011;22738;45.560;9.434;2022-10-16T04:56:38;58.15;;;29.70;;
36787;SDS011;22738;45.560;9.434;2022-10-16T05:03:27;58.25;;;26.98;;
36787;SDS011;22738;45.560;9.434;2022-10-16T05:10:08;51.10;;;25.20;;
36787;SDS011;22738;45.560;9.434;2022-10-16T05:16:49;45.65;;;25.52;;
36787;SDS011;22738;45.560;9.434;2022-10-16T05:23:30;49.00;;;24.67;;
36787;SDS011;22738;45.560;9.434;2022-10-16T05:30:12;44.78;;;23.85;;
36787;SDS011;22738;45.560;9.434;2022-10-16T05:36:53;56.45;;;27.10;;
36787;SDS011;22738;45.560;9.434;2022-10-16T05:43:34;56.40;;;27.95;;
36787;SDS011;22738;45.560;9.434;2022-10-16T05:50:15;65.72;;;31.58;;
36787;SDS011;22738;45.560;9.434;2022-10-16T05:56:56;62.58;;;30.77;;
36787;SDS011;22738;45.560;9.434;2022-10-16T06:03:37;69.03;;;32.58;;
36787;SDS011;22738;45.560;9.434;2022-10-16T06:10:18;62.30;;;31.98;;
36787;SDS011;22738;45.560;9.434;2022-10-16T06:16:59;57.63;;;27.88;;
36787;SDS011;22738;45.560;9.434;2022-10-16T06:23:40;76.93;;;36.38;;
36787;SDS011;22738;45.560;9.434;2022-10-16T06:30:21;76.72;;;39.03;;
36787;SDS011;22738;45.560;9.434;2022-10-16T06:37:02;59.88;;;29.25;;
36787;SDS011;22738;45.560;9.434;2022-10-16T06:43:43;68.65;;;35.10;;
36787;SDS011;22738;45.560;9.434;2022-10-16T06:50:27;76.18;;;35.35;;
36787;SDS011;22738;45.560;9.434;2022-10-16T06:57:09;74.55;;;34.92;;
36787;SDS011;22738;45.560;9.434;2022-10-16T07:03:50;71.32;;;35.95;;
36787;SDS011;22738;45.560;9.434;2022-10-16T07:10:32;61.00;;;29.75;;
36787;SDS011;22738;45.560;9.434;2022-10-16T07:17:14;58.72;;;29.55;;
36787;SDS011;22738;45.560;9.434;2022-10-16T07:23:57;62.58;;;29.67;;
36787;SDS011;22738;45.560;9.434;2022-10-16T07:30:40;64.70;;;29.25;;
36787;SDS011;22738;45.560;9.434;2022-10-16T07:37:21;60.95;;;29.90;;
36787;SDS011;22738;45.560;9.434;2022-10-16T07:44:03;56.15;;;29.80;;
36787;SDS011;22738;45.560;9.434;2022-10-16T07:50:44;48.00;;;25.42;;
36787;SDS011;22738;45.560;9.434;2022-10-16T07:57:26;57.28;;;27.13;;
36787;SDS011;22738;45.560;9.434;2022-10-16T08:04:08;57.45;;;30.48;;
36787;SDS011;22738;45.560;9.434;2022-10-16T08:10:50;48.15;;;24.45;;
36787;SDS011;22738;45.560;9.434;2022-10-16T08:17:31;54.05;;;27.25;;
36787;SDS011;22738;45.560;9.434;2022-10-16T08:24:13;65.13;;;31.83;;
36787;SDS011;22738;45.560;9.434;2022-10-16T08:30:54;71.50;;;31.77;;
36787;SDS011;22738;45.560;9.434;2022-10-16T08:37:37;45.83;;;25.23;;
36787;SDS011;22738;45.560;9.434;2022-10-16T08:51:35;69.28;;;32.15;;
36787;SDS011;22738;45.560;9.434;2022-10-16T08:58:21;75.53;;;34.00;;
36787;SDS011;22738;45.560;9.434;2022-10-16T09:19:45;86.97;;;40.60;;
36787;SDS011;22738;45.560;9.434;2022-10-16T09:26:32;94.45;;;43.40;;
36787;SDS011;22738;45.560;9.434;2022-10-16T09:33:13;79.28;;;37.08;;
36787;SDS011;22738;45.560;9.434;2022-10-16T09:39:55;93.72;;;42.40;;
36787;SDS011;22738;45.560;9.434;2022-10-16T09:46:36;92.20;;;42.10;;
36787;SDS011;22738;45.560;9.434;2022-10-16T10:00:04;85.35;;;35.38;;
36787;SDS011;22738;45.560;9.434;2022-10-16T10:06:50;91.35;;;41.88;;
36787;SDS011;22738;45.560;9.434;2022-10-16T10:13:35;90.18;;;41.28;;
36787;SDS011;22738;45.560;9.434;2022-10-16T10:20:56;81.05;;;37.95;;
36787;SDS011;22738;45.560;9.434;2022-10-16T10:27:31;77.03;;;36.42;;
36787;SDS011;22738;45.560;9.434;2022-10-16T10:56:18;91.70;;;39.67;;
36787;SDS011;22738;45.560;9.434;2022-10-16T11:10:18;97.82;;;43.67;;
36787;SDS011;22738;45.560;9.434;2022-10-16T11:17:08;89.10;;;41.10;;
36787;SDS011;22738;45.560;9.434;2022-10-16T11:23:59;96.82;;;44.80;;
36787;SDS011;22738;45.560;9.434;2022-10-16T11:52:48;90.80;;;41.40;;
36787;SDS011;22738;45.560;9.434;2022-10-16T11:59:19;70.22;;;34.72;;
36787;SDS011;22738;45.560;9.434;2022-10-16T12:13:37;74.82;;;34.85;;
36787;SDS011;22738;45.560;9.434;2022-10-16T12:20:24;75.15;;;35.10;;
36787;SDS011;22738;45.560;9.434;2022-10-16T12:27:30;70.88;;;34.30;;
36787;SDS011;22738;45.560;9.434;2022-10-16T12:41:28;62.22;;;31.45;;
36787;SDS011;22738;45.560;9.434;2022-10-16T12:48:20;72.57;;;34.08;;
36787;SDS011;22738;45.560;9.434;2022-10-16T12:55:04;65.00;;;31.42;;
36787;SDS011;22738;45.560;9.434;2022-10-16T13:30:19;56.63;;;26.37;;
36787;SDS011;22738;45.560;9.434;2022-10-16T13:37:22;72.57;;;34.65;;
36787;SDS011;22738;45.560;9.434;2022-10-16T13:44:05;70.07;;;32.78;;
36787;SDS011;22738;45.560;9.434;2022-10-16T13:51:13;52.20;;;26.73;;
36787;SDS011;22738;45.560;9.434;2022-10-16T13:58:04;69.75;;;33.13;;
36787;SDS011;22738;45.560;9.434;2022-10-16T14:04:46;54.83;;;26.25;;
36787;SDS011;22738;45.560;9.434;2022-10-16T14:11:28;68.22;;;32.70;;
36787;SDS011;22738;45.560;9.434;2022-10-16T14:18:13;54.30;;;28.00;;
36787;SDS011;22738;45.560;9.434;2022-10-16T14:32:00;54.47;;;25.35;;
36787;SDS011;22738;45.560;9.434;2022-10-16T14:45:58;53.00;;;26.63;;
36787;SDS011;22738;45.560;9.434;2022-10-16T14:52:39;52.55;;;24.58;;
36787;SDS011;22738;45.560;9.434;2022-10-16T15:06:15;59.05;;;28.55;;
36787;SDS011;22738;45.560;9.434;2022-10-16T15:12:56;49.42;;;25.17;;
36787;SDS011;22738;45.560;9.434;2022-10-16T15:19:39;42.83;;;21.35;;
36787;SDS011;22738;45.560;9.434;2022-10-16T15:26:20;53.08;;;24.92;;
36787;SDS011;22738;45.560;9.434;2022-10-16T15:33:02;80.15;;;37.22;;
36787;SDS011;22738;45.560;9.434;2022-10-16T15:39:44;61.75;;;29.52;;
36787;SDS011;22738;45.560;9.434;2022-10-16T15:46:25;65.30;;;32.05;;
36787;SDS011;22738;45.560;9.434;2022-10-16T15:53:07;57.72;;;27.08;;
36787;SDS011;22738;45.560;9.434;2022-10-16T15:59:50;75.95;;;34.25;;
36787;SDS011;22738;45.560;9.434;2022-10-16T16:06:31;75.15;;;34.38;;
36787;SDS011;22738;45.560;9.434;2022-10-16T16:13:12;65.20;;;30.90;;
36787;SDS011;22738;45.560;9.434;2022-10-16T16:19:53;52.38;;;25.27;;
36787;SDS011;22738;45.560;9.434;2022-10-16T16:26:34;45.17;;;24.08;;
36787;SDS011;22738;45.560;9.434;2022-10-16T16:33:19;57.25;;;27.85;;
36787;SDS011;22738;45.560;9.434;2022-10-16T16:40:01;52.72;;;27.48;;
36787;SDS011;22738;45.560;9.434;2022-10-16T16:46:43;62.67;;;29.63;;
36787;SDS011;22738;45.560;9.434;2022-10-16T16:53:25;59.67;;;28.52;;
36787;SDS011;22738;45.560;9.434;2022-10-16T17:00:06;76.03;;;34.15;;
36787;SDS011;22738;45.560;9.434;2022-10-16T17:06:47;68.22;;;33.60;;
36787;SDS011;22738;45.560;9.434;2022-10-16T17:13:30;71.45;;;32.25;;
36787;SDS011;22738;45.560;9.434;2022-10-16T17:20:15;69.60;;;32.33;;
36787;SDS011;22738;45.560;9.434;2022-10-16T17:26:56;69.32;;;32.90;;
36787;SDS011;22738;45.560;9.434;2022-10-16T17:33:37;71.90;;;33.17;;
36787;SDS011;22738;45.560;9.434;2022-10-16T17:40:19;81.95;;;35.97;;
36787;SDS011;22738;45.560;9.434;2022-10-16T17:47:00;80.03;;;36.35;;
36787;SDS011;22738;45.560;9.434;2022-10-16T17:53:42;82.18;;;37.55;;
36787;SDS011;22738;45.560;9.434;2022-10-16T18:00:24;92.13;;;40.40;;
36787;SDS011;22738;45.560;9.434;2022-10-16T18:07:05;82.75;;;37.30;;
36787;SDS011;22738;45.560;9.434;2022-10-16T18:13:46;76.05;;;35.30;;
36787;SDS011;22738;45.560;9.434;2022-10-16T18:20:28;81.15;;;38.60;;
36787;SDS011;22738;45.560;9.434;2022-10-16T18:27:09;80.53;;;36.90;;
36787;SDS011;22738;45.560;9.434;2022-10-16T18:33:50;81.70;;;35.60;;
36787;SDS011;22738;45.560;9.434;2022-10-16T18:40:34;77.32;;;37.72;;
36787;SDS011;22738;45.560;9.434;2022-10-16T18:53:57;76.47;;;34.45;;
36787;SDS011;22738;45.560;9.434;2022-10-16T19:00:40;71.20;;;33.65;;
36787;SDS011;22738;45.560;9.434;2022-10-16T19:07:22;77.45;;;34.78;;
36787;SDS011;22738;45.560;9.434;2022-10-16T19:14:03;71.22;;;33.28;;
36787;SDS011;22738;45.560;9.434;2022-10-16T19:20:45;78.68;;;37.17;;
36787;SDS011;22738;45.560;9.434;2022-10-16T19:27:26;76.93;;;35.30;;
36787;SDS011;22738;45.560;9.434;2022-10-16T19:34:08;79.57;;;37.00;;
36787;SDS011;22738;45.560;9.434;2022-10-16T19:40:50;82.70;;;39.33;;
36787;SDS011;22738;45.560;9.434;2022-10-16T19:47:31;84.55;;;37.47;;
36787;SDS011;22738;45.560;9.434;2022-10-16T19:54:12;81.00;;;38.33;;
36787;SDS011;22738;45.560;9.434;2022-10-16T20:00:53;78.75;;;35.03;;
36787;SDS011;22738;45.560;9.434;2022-10-16T20:07:34;84.65;;;40.47;;
36787;SDS011;22738;45.560;9.434;2022-10-16T20:14:15;85.13;;;38.88;;
36787;SDS011;22738;45.560;9.434;2022-10-16T20:20:56;82.90;;;38.50;;
36787;SDS011;22738;45.560;9.434;2022-10-16T20:27:38;86.95;;;40.60;;
36787;SDS011;22738;45.560;9.434;2022-10-16T20:34:19;89.35;;;39.95;;
36787;SDS011;22738;45.560;9.434;2022-10-16T20:41:02;96.63;;;40.70;;
36787;SDS011;22738;45.560;9.434;2022-10-16T20:47:44;86.45;;;40.15;;
36787;SDS011;22738;45.560;9.434;2022-10-16T20:54:25;87.97;;;40.55;;
36787;SDS011;22738;45.560;9.434;2022-10-16T21:01:07;87.68;;;40.47;;
36787;SDS011;22738;45.560;9.434;2022-10-16T21:07:49;92.90;;;40.57;;
36787;SDS011;22738;45.560;9.434;2022-10-16T21:14:30;92.10;;;40.28;;
36787;SDS011;22738;45.560;9.434;2022-10-16T21:21:21;79.88;;;39.15;;
36787;SDS011;22738;45.560;9.434;2022-10-16T21:28:05;88.37;;;41.70;;
36787;SDS011;22738;45.560;9.434;2022-10-16T21:34:46;88.93;;;41.55;;
36787;SDS011;22738;45.560;9.434;2022-10-16T21:41:27;92.97;;;40.40;;
36787;SDS011;22738;45.560;9.434;2022-10-16T21:48:09;83.70;;;40.47;;
36787;SDS011;22738;45.560;9.434;2022-10-16T21:54:50;83.85;;;39.75;;
36787;SDS011;22738;45.560;9.434;2022-10-16T22:01:32;82.90;;;39.40;;
36787;SDS011;22738;45.560;9.434;2022-10-16T22:08:14;87.30;;;40.50;;
36787;SDS011;22738;45.560;9.434;2022-10-16T22:14:55;81.75;;;38.50;;
36787;SDS011;22738;45.560;9.434;2022-10-16T22:21:37;88.75;;;39.28;;
36787;SDS011;22738;45.560;9.434;2022-10-16T22:35:01;80.72;;;37.67;;
36787;SDS011;22738;45.560;9.434;2022-10-16T22:41:42;79.35;;;36.55;;
36787;SDS011;22738;45.560;9.434;2022-10-16T22:48:23;71.18;;;36.92;;
36787;SDS011;22738;45.560;9.434;2022-10-16T22:55:04;82.75;;;38.38;;
36787;SDS011;22738;45.560;9.434;2022-10-16T23:01:45;77.13;;;38.33;;
36787;SDS011;22738;45.560;9.434;2022-10-16T23:08:26;84.05;;;38.80;;
36787;SDS011;22738;45.560;9.434;2022-10-16T23:15:07;79.65;;;38.30;;
36787;SDS011;22738;45.560;9.434;2022-10-16T23:21:48;86.40;;;37.95;;
36787;SDS011;22738;45.560;9.434;2022-10-16T23:28:30;78.13;;;36.85;;
36787;SDS011;22738;45.560;9.434;2022-10-16T23:35:11;82.53;;;37.05;;
36787;SDS011;22738;45.560;9.434;2022-10-16T23:41:52;72.82;;;35.92;;
36787;SDS011;22738;45.560;9.434;2022-10-16T23:48:33;83.28;;;37.03;;
36787;SDS011;22738;45.560;9.434;2022-10-16T23:55:14;76.97;;;36.65;;
